Time;durP1;ratioP1;P1;durP2;ratioP2;P2;SDS_P1;SDS_P2;PMS_P1;PMS_P2;Temp;Humidity;BMP_temperature;BMP_pressure;BME280_temperature;BME280_humidity;BME280_pressure;Samples;Min_cycle;Max_cycle;Signal;HPM_P1;HPM_P2
2023/06/09 00:01:53;;;;;;;6.18;5.78;;;;;;;;;;5121162;28;20252;-62
2023/06/09 00:04:23;;;;;;;6.07;5.68;;;;;;;;;;5120942;28;20601;-61
2023/06/09 00:06:52;;;;;;;6.35;5.85;;;;;;;;;;5121013;28;20207;-61
2023/06/09 00:09:20;;;;;;;5.70;5.30;;;;;;;;;;5120877;28;20313;-61
2023/06/09 00:11:47;;;;;;;6.35;5.95;;;;;;;;;;5120921;28;20210;-61
2023/06/09 00:14:15;;;;;;;6.25;5.85;;;;;;;;;;5121110;28;20203;-61
2023/06/09 00:16:45;;;;;;;6.53;5.95;;;;;;;;;;5120834;28;20647;-61
2023/06/09 00:19:12;;;;;;;6.38;5.88;;;;;;;;;;5121123;28;20281;-61
2023/06/09 00:21:40;;;;;;;6.18;5.72;;;;;;;;;;5120922;28;20210;-61
2023/06/09 00:24:08;;;;;;;6.18;5.68;;;;;;;;;;5120463;28;20203;-61
2023/06/09 00:26:36;;;;;;;6.30;5.70;;;;;;;;;;5120881;28;20267;-61
2023/06/09 00:29:03;;;;;;;6.30;5.85;;;;;;;;;;5120498;28;20206;-61
2023/06/09 00:31:31;;;;;;;6.50;6.10;;;;;;;;;;5120472;28;20207;-61
2023/06/09 00:34:01;;;;;;;6.20;5.80;;;;;;;;;;5120785;28;20294;-61
2023/06/09 00:36:29;;;;;;;6.45;5.88;;;;;;;;;;5120628;28;20213;-61
2023/06/09 00:38:56;;;;;;;6.28;5.78;;;;;;;;;;5120262;28;20279;-61
2023/06/09 00:41:23;;;;;;;6.38;5.90;;;;;;;;;;5120757;28;20289;-62
2023/06/09 00:43:51;;;;;;;6.78;6.20;;;;;;;;;;5120509;28;20404;-60
2023/06/09 00:46:19;;;;;;;6.03;5.63;;;;;;;;;;5119989;28;20627;-61
2023/06/09 00:48:47;;;;;;;6.32;5.82;;;;;;;;;;5120215;27;20211;-61
2023/06/09 00:51:16;;;;;;;6.53;6.03;;;;;;;;;;5120013;28;20235;-61
2023/06/09 00:53:43;;;;;;;6.28;5.70;;;;;;;;;;5120061;28;20252;-61
2023/06/09 00:56:12;;;;;;;6.07;5.68;;;;;;;;;;5120000;28;20203;-61
2023/06/09 00:58:39;;;;;;;6.57;6.07;;;;;;;;;;5120005;28;20264;-61
2023/06/09 01:01:08;;;;;;;5.95;5.55;;;;;;;;;;5120202;28;20246;-61
2023/06/09 01:03:38;;;;;;;6.72;6.18;;;;;;;;;;5120042;28;20203;-61
2023/06/09 01:06:12;;;;;;;6.38;5.80;;;;;;;;;;5119697;28;20202;-61
2023/06/09 01:08:43;;;;;;;6.10;5.60;;;;;;;;;;5120313;28;20309;-61
2023/06/09 01:11:15;;;;;;;6.55;6.05;;;;;;;;;;5119933;28;20227;-61
2023/06/09 01:13:45;;;;;;;6.03;5.63;;;;;;;;;;5119849;28;20234;-61
2023/06/09 01:16:17;;;;;;;6.70;6.20;;;;;;;;;;5119812;28;20597;-61
2023/06/09 01:18:45;;;;;;;6.13;5.63;;;;;;;;;;5119968;28;20214;-61
2023/06/09 01:21:17;;;;;;;6.60;6.00;;;;;;;;;;5119579;27;20583;-61
2023/06/09 01:23:52;;;;;;;6.28;5.78;;;;;;;;;;5119743;28;20218;-61
2023/06/09 01:26:21;;;;;;;6.03;5.53;;;;;;;;;;5119320;28;20367;-61
2023/06/09 01:28:49;;;;;;;6.38;5.88;;;;;;;;;;5119252;28;20574;-61
2023/06/09 01:31:18;;;;;;;6.07;5.68;;;;;;;;;;5119202;28;20273;-61
2023/06/09 01:33:46;;;;;;;6.22;5.75;;;;;;;;;;5119598;28;20202;-61
2023/06/09 01:36:15;;;;;;;6.70;6.20;;;;;;;;;;5118825;28;20299;-61
2023/06/09 01:38:43;;;;;;;5.90;5.50;;;;;;;;;;5118563;28;20207;-61
2023/06/09 01:41:11;;;;;;;6.45;6.05;;;;;;;;;;5119235;28;20297;-61
2023/06/09 01:43:40;;;;;;;6.82;6.32;;;;;;;;;;5118940;28;20214;-61
2023/06/09 01:46:08;;;;;;;6.63;6.18;;;;;;;;;;5118956;28;20579;-62
2023/06/09 01:48:42;;;;;;;6.65;6.15;;;;;;;;;;5118814;28;20210;-62
2023/06/09 01:51:12;;;;;;;6.35;5.95;;;;;;;;;;5118897;28;20275;-61
2023/06/09 01:53:41;;;;;;;6.70;6.20;;;;;;;;;;5118906;28;20288;-61
2023/06/09 01:56:12;;;;;;;6.18;5.78;;;;;;;;;;5119057;28;20210;-61
2023/06/09 01:58:43;;;;;;;6.50;6.10;;;;;;;;;;5119012;28;20264;-61
2023/06/09 02:01:12;;;;;;;6.65;6.15;;;;;;;;;;5118888;28;20206;-61
2023/06/09 02:03:42;;;;;;;6.68;6.07;;;;;;;;;;5118887;28;20202;-61
2023/06/09 02:06:11;;;;;;;6.30;5.82;;;;;;;;;;5118649;28;20203;-61
2023/06/09 02:08:39;;;;;;;6.47;5.97;;;;;;;;;;5118745;28;20284;-62
2023/06/09 02:11:07;;;;;;;6.25;5.82;;;;;;;;;;5118843;28;20362;-62
2023/06/09 02:13:34;;;;;;;6.85;6.35;;;;;;;;;;5118858;28;20492;-61
2023/06/09 02:16:03;;;;;;;6.70;6.20;;;;;;;;;;5118232;28;20294;-62
2023/06/09 02:18:32;;;;;;;6.45;6.03;;;;;;;;;;5118351;28;20246;-62
2023/06/09 02:20:59;;;;;;;6.88;6.38;;;;;;;;;;5118367;28;20230;-62
2023/06/09 02:23:27;;;;;;;6.57;6.05;;;;;;;;;;5118681;28;20195;-61
2023/06/09 02:25:55;;;;;;;6.80;6.30;;;;;;;;;;5118133;28;21204;-61
2023/06/09 02:28:22;;;;;;;6.70;6.20;;;;;;;;;;5118199;27;20203;-61
2023/06/09 02:30:50;;;;;;;6.43;6.03;;;;;;;;;;5118216;28;20611;-62
2023/06/09 02:33:19;;;;;;;6.30;5.90;;;;;;;;;;5118508;28;20203;-62
2023/06/09 02:35:46;;;;;;;6.82;6.32;;;;;;;;;;5118534;28;20471;-62
2023/06/09 02:38:14;;;;;;;6.28;5.88;;;;;;;;;;5118250;28;20655;-62
2023/06/09 02:40:44;;;;;;;6.45;5.97;;;;;;;;;;5118142;28;20207;-62
2023/06/09 02:43:11;;;;;;;6.60;6.07;;;;;;;;;;5117806;28;20293;-61
2023/06/09 02:45:39;;;;;;;6.55;6.00;;;;;;;;;;5117765;28;20238;-61
2023/06/09 02:48:07;;;;;;;7.07;6.47;;;;;;;;;;5117894;28;20207;-61
2023/06/09 02:50:36;;;;;;;6.95;6.45;;;;;;;;;;5117786;28;20226;-61
2023/06/09 02:53:03;;;;;;;6.72;6.22;;;;;;;;;;5118369;28;20211;-61
2023/06/09 02:55:32;;;;;;;6.88;6.38;;;;;;;;;;5117671;28;20249;-61
2023/06/09 02:57:59;;;;;;;6.18;5.78;;;;;;;;;;5117837;28;20207;-62
2023/06/09 03:00:27;;;;;;;7.07;6.47;;;;;;;;;;5117896;28;20260;-62
2023/06/09 03:02:55;;;;;;;6.75;6.20;;;;;;;;;;5118022;28;20268;-62
2023/06/09 03:05:24;;;;;;;6.72;6.13;;;;;;;;;;5117791;28;20206;-61
2023/06/09 03:07:53;;;;;;;6.47;6.00;;;;;;;;;;5117694;28;20217;-62
2023/06/09 03:10:21;;;;;;;6.60;6.10;;;;;;;;;;5118028;28;20477;-62
2023/06/09 03:12:48;;;;;;;6.82;6.20;;;;;;;;;;5117950;28;20267;-62
2023/06/09 03:15:16;;;;;;;6.57;6.18;;;;;;;;;;5118050;28;20203;-61
2023/06/09 03:17:44;;;;;;;6.68;6.18;;;;;;;;;;5117585;28;20301;-62
2023/06/09 03:20:12;;;;;;;6.50;6.00;;;;;;;;;;5117851;28;20298;-61
2023/06/09 03:22:39;;;;;;;6.90;6.30;;;;;;;;;;5117631;28;20199;-61
2023/06/09 03:25:10;;;;;;;6.40;6.00;;;;;;;;;;5117739;28;20809;-61
2023/06/09 03:27:37;;;;;;;6.55;6.15;;;;;;;;;;5117819;28;20267;-61
2023/06/09 03:30:05;;;;;;;6.47;6.07;;;;;;;;;;5121282;28;20206;-61
2023/06/09 03:32:32;;;;;;;6.53;6.03;;;;;;;;;;5121155;28;20264;-61
2023/06/09 03:35:00;;;;;;;6.82;6.32;;;;;;;;;;5121813;28;20202;-61
2023/06/09 03:37:28;;;;;;;6.82;6.32;;;;;;;;;;5121505;28;20227;-61
2023/06/09 03:39:55;;;;;;;6.90;6.32;;;;;;;;;;5121736;28;20202;-61
2023/06/09 03:42:24;;;;;;;6.78;6.18;;;;;;;;;;5121231;27;20279;-61
2023/06/09 03:44:57;;;;;;;7.55;6.90;;;;;;;;;;5121356;28;20776;-61
2023/06/09 03:47:25;;;;;;;7.00;6.35;;;;;;;;;;5121113;28;20260;-61
2023/06/09 03:49:53;;;;;;;7.53;6.95;;;;;;;;;;5120868;28;20655;-61
2023/06/09 03:52:21;;;;;;;7.10;6.60;;;;;;;;;;5121150;28;20317;-61
2023/06/09 03:54:49;;;;;;;6.82;6.32;;;;;;;;;;5120641;28;20211;-61
2023/06/09 03:57:17;;;;;;;7.13;6.63;;;;;;;;;;5104610;28;20233;-61
2023/06/09 03:59:45;;;;;;;6.97;6.55;;;;;;;;;;5100040;28;20584;-61
2023/06/09 04:02:13;;;;;;;7.20;6.70;;;;;;;;;;5100082;28;20208;-61
2023/06/09 04:04:40;;;;;;;6.70;6.10;;;;;;;;;;5100734;28;20204;-61
2023/06/09 04:07:08;;;;;;;7.03;6.43;;;;;;;;;;5100475;28;20211;-61
2023/06/09 04:09:35;;;;;;;7.32;6.82;;;;;;;;;;5100112;28;20200;-61
2023/06/09 04:12:03;;;;;;;7.07;6.57;;;;;;;;;;5099904;28;20228;-61
2023/06/09 04:14:30;;;;;;;7.03;6.50;;;;;;;;;;5100512;28;20203;-62
2023/06/09 04:16:59;;;;;;;7.20;6.60;;;;;;;;;;5099861;28;20214;-61
2023/06/09 04:19:27;;;;;;;7.40;6.90;;;;;;;;;;5100484;28;20211;-61
2023/06/09 04:21:54;;;;;;;7.68;7.10;;;;;;;;;;5099926;28;20204;-62
2023/06/09 04:24:21;;;;;;;7.22;6.82;;;;;;;;;;5099622;28;20204;-62
2023/06/09 04:26:48;;;;;;;7.53;7.03;;;;;;;;;;5100182;28;20204;-61
2023/06/09 04:29:17;;;;;;;7.13;6.63;;;;;;;;;;5099401;28;20229;-61
2023/06/09 04:31:44;;;;;;;7.07;6.57;;;;;;;;;;5099613;28;20494;-61
2023/06/09 04:34:15;;;;;;;7.40;6.80;;;;;;;;;;5099516;28;20246;-61
2023/06/09 04:36:44;;;;;;;7.60;7.10;;;;;;;;;;5099451;28;20227;-61
2023/06/09 04:39:12;;;;;;;7.25;6.65;;;;;;;;;;5098413;28;20204;-61
2023/06/09 04:41:40;;;;;;;7.35;6.85;;;;;;;;;;5099266;28;20214;-61
2023/06/09 04:44:07;;;;;;;7.53;7.03;;;;;;;;;;5098825;28;20214;-61
2023/06/09 04:46:37;;;;;;;7.68;7.07;;;;;;;;;;5098430;28;20242;-62
2023/06/09 04:49:08;;;;;;;7.30;6.80;;;;;;;;;;5098638;28;20223;-62
2023/06/09 04:51:41;;;;;;;7.40;6.90;;;;;;;;;;5098204;28;20277;-61
2023/06/09 04:54:09;;;;;;;7.60;7.10;;;;;;;;;;5098273;28;20242;-61
2023/06/09 04:56:38;;;;;;;7.82;7.28;;;;;;;;;;5097933;28;20653;-61
2023/06/09 04:59:07;;;;;;;7.93;7.40;;;;;;;;;;5097705;28;20230;-61
2023/06/09 05:01:34;;;;;;;7.82;7.22;;;;;;;;;;5096886;28;20199;-61
2023/06/09 05:04:02;;;;;;;7.53;7.03;;;;;;;;;;5096712;28;20211;-61
2023/06/09 05:06:29;;;;;;;7.70;7.03;;;;;;;;;;5097132;28;20227;-61
2023/06/09 05:08:58;;;;;;;8.23;7.65;;;;;;;;;;5096321;28;20231;-61
2023/06/09 05:11:26;;;;;;;7.82;7.22;;;;;;;;;;5096701;28;20219;-61
2023/06/09 05:13:53;;;;;;;7.82;7.32;;;;;;;;;;5096481;28;20214;-61
2023/06/09 05:16:21;;;;;;;8.05;7.45;;;;;;;;;;5096946;28;20203;-61
2023/06/09 05:18:48;;;;;;;7.55;7.05;;;;;;;;;;5096030;28;20196;-61
2023/06/09 05:21:18;;;;;;;7.10;6.68;;;;;;;;;;5096144;28;20614;-61
2023/06/09 05:23:48;;;;;;;7.95;7.35;;;;;;;;;;5096243;28;20319;-61
2023/06/09 05:26:17;;;;;;;7.57;7.03;;;;;;;;;;5095216;28;20203;-61
2023/06/09 05:28:44;;;;;;;8.10;7.40;;;;;;;;;;5096031;28;20607;-61
2023/06/09 05:31:12;;;;;;;7.57;7.05;;;;;;;;;;5096640;28;20231;-62
2023/06/09 05:33:40;;;;;;;7.97;7.40;;;;;;;;;;5095645;28;20195;-62
2023/06/09 05:36:08;;;;;;;7.57;6.95;;;;;;;;;;5095803;28;20239;-61
2023/06/09 05:38:36;;;;;;;7.80;7.30;;;;;;;;;;5096461;28;20303;-61
2023/06/09 05:41:03;;;;;;;8.27;7.68;;;;;;;;;;5096494;28;20294;-61
2023/06/09 05:43:32;;;;;;;8.02;7.43;;;;;;;;;;5096522;28;20227;-61
2023/06/09 05:45:59;;;;;;;7.80;7.20;;;;;;;;;;5095001;28;20326;-62
2023/06/09 05:48:27;;;;;;;8.30;7.70;;;;;;;;;;5095835;28;20204;-62
2023/06/09 05:50:54;;;;;;;7.80;7.28;;;;;;;;;;5094966;28;20204;-61
2023/06/09 05:53:23;;;;;;;7.70;7.20;;;;;;;;;;5095852;28;20204;-61
2023/06/09 05:55:52;;;;;;;7.65;7.10;;;;;;;;;;5095537;28;20204;-61
2023/06/09 05:58:19;;;;;;;7.65;7.05;;;;;;;;;;5095272;28;20214;-61
2023/06/09 06:00:49;;;;;;;8.18;7.57;;;;;;;;;;5094947;28;20211;-61
2023/06/09 06:03:16;;;;;;;8.43;7.82;;;;;;;;;;5095255;28;20302;-61
2023/06/09 06:05:45;;;;;;;8.07;7.47;;;;;;;;;;5095572;28;20215;-61
2023/06/09 06:08:13;;;;;;;8.55;7.75;;;;;;;;;;5096170;28;20211;-61
2023/06/09 06:10:40;;;;;;;7.72;7.22;;;;;;;;;;5095889;28;20203;-61
2023/06/09 06:13:08;;;;;;;7.85;7.30;;;;;;;;;;5095362;28;20238;-61
2023/06/09 06:15:35;;;;;;;7.63;7.13;;;;;;;;;;5095196;28;20199;-62
2023/06/09 06:18:04;;;;;;;7.40;6.90;;;;;;;;;;5095150;28;20599;-62
2023/06/09 06:20:31;;;;;;;7.82;7.32;;;;;;;;;;5095213;28;20500;-61
2023/06/09 06:22:58;;;;;;;7.22;6.72;;;;;;;;;;5095065;28;20207;-61
2023/06/09 06:25:28;;;;;;;7.80;7.30;;;;;;;;;;5096328;28;20207;-61
2023/06/09 06:27:57;;;;;;;7.32;6.82;;;;;;;;;;5095665;28;20603;-61
2023/06/09 06:30:25;;;;;;;8.43;7.82;;;;;;;;;;5096340;28;20239;-62
2023/06/09 06:32:53;;;;;;;7.82;7.22;;;;;;;;;;5095487;28;20611;-62
2023/06/09 06:35:29;;;;;;;8.18;7.60;;;;;;;;;;5095565;28;20221;-62
2023/06/09 06:37:56;;;;;;;7.80;7.30;;;;;;;;;;5095126;28;20211;-62
2023/06/09 06:40:24;;;;;;;7.63;7.10;;;;;;;;;;5095932;28;20218;-62
2023/06/09 06:42:51;;;;;;;8.27;7.68;;;;;;;;;;5095236;28;20200;-62
2023/06/09 06:45:19;;;;;;;8.38;7.68;;;;;;;;;;5095485;28;20243;-62
2023/06/09 06:47:46;;;;;;;8.02;7.53;;;;;;;;;;5095738;28;20588;-62
2023/06/09 06:50:13;;;;;;;9.38;8.68;;;;;;;;;;5095942;28;20204;-62
2023/06/09 06:52:42;;;;;;;7.53;7.03;;;;;;;;;;5095760;28;20219;-62
2023/06/09 06:55:10;;;;;;;9.05;8.35;;;;;;;;;;5095592;28;20598;-62
2023/06/09 06:57:38;;;;;;;9.77;9.07;;;;;;;;;;5095800;28;20298;-62
2023/06/09 07:00:09;;;;;;;8.95;8.35;;;;;;;;;;5095875;28;20265;-62
2023/06/09 07:02:36;;;;;;;8.35;7.75;;;;;;;;;;5097289;28;20198;-62
2023/06/09 07:05:06;;;;;;;8.10;7.43;;;;;;;;;;5098861;28;20218;-62
2023/06/09 07:07:33;;;;;;;8.85;8.25;;;;;;;;;;5099251;28;20214;-62
2023/06/09 07:10:02;;;;;;;8.35;7.75;;;;;;;;;;5099060;28;20203;-62
2023/06/09 07:12:30;;;;;;;8.50;7.90;;;;;;;;;;5099337;28;20231;-62
2023/06/09 07:14:57;;;;;;;9.25;8.55;;;;;;;;;;5098760;28;20203;-62
2023/06/09 07:17:25;;;;;;;9.02;8.23;;;;;;;;;;5099388;28;20231;-62
2023/06/09 07:19:52;;;;;;;8.57;7.97;;;;;;;;;;5098779;28;20218;-62
2023/06/09 07:22:20;;;;;;;8.68;8.07;;;;;;;;;;5099158;28;20218;-62
2023/06/09 07:24:48;;;;;;;9.30;8.70;;;;;;;;;;5100014;28;20266;-62
2023/06/09 07:27:17;;;;;;;8.57;7.88;;;;;;;;;;5099905;28;20518;-62
2023/06/09 07:29:44;;;;;;;9.65;8.85;;;;;;;;;;5098616;28;20203;-62
2023/06/09 07:32:11;;;;;;;8.73;8.02;;;;;;;;;;5098945;28;20615;-62
2023/06/09 07:34:39;;;;;;;9.27;8.48;;;;;;;;;;5098699;28;20607;-62
2023/06/09 07:37:07;;;;;;;9.30;8.40;;;;;;;;;;5098377;28;20795;-62
2023/06/09 07:39:36;;;;;;;8.90;8.25;;;;;;;;;;5099120;28;20276;-62
2023/06/09 07:42:03;;;;;;;9.80;9.00;;;;;;;;;;5098883;28;20308;-62
2023/06/09 07:44:32;;;;;;;9.73;8.82;;;;;;;;;;5098982;28;20214;-62
2023/06/09 07:46:59;;;;;;;9.90;9.15;;;;;;;;;;5098933;28;20227;-62
2023/06/09 07:49:27;;;;;;;10.32;9.50;;;;;;;;;;5098540;28;20204;-62
2023/06/09 07:51:55;;;;;;;10.73;9.93;;;;;;;;;;5098248;28;20261;-62
2023/06/09 07:54:23;;;;;;;10.68;9.88;;;;;;;;;;5098719;28;20210;-62
2023/06/09 07:56:51;;;;;;;10.38;9.55;;;;;;;;;;5098165;28;20203;-62
2023/06/09 07:59:19;;;;;;;10.57;9.68;;;;;;;;;;5098262;28;20200;-62
2023/06/09 08:01:47;;;;;;;10.98;10.07;;;;;;;;;;5097534;28;20203;-62
2023/06/09 08:04:15;;;;;;;9.73;9.02;;;;;;;;;;5097665;28;20785;-62
2023/06/09 08:06:44;;;;;;;10.60;9.80;;;;;;;;;;5098379;28;20658;-62
2023/06/09 08:09:12;;;;;;;11.60;10.70;;;;;;;;;;5098886;28;20203;-62
2023/06/09 08:11:39;;;;;;;11.20;10.35;;;;;;;;;;5097542;28;20638;-62
2023/06/09 08:14:07;;;;;;;11.20;10.50;;;;;;;;;;5097266;28;20203;-62
2023/06/09 08:16:35;;;;;;;11.05;10.25;;;;;;;;;;5097976;28;20600;-62
2023/06/09 08:19:03;;;;;;;11.05;10.30;;;;;;;;;;5098784;28;20204;-62
2023/06/09 08:21:31;;;;;;;10.70;9.93;;;;;;;;;;5098557;28;20222;-62
2023/06/09 08:23:58;;;;;;;11.07;10.25;;;;;;;;;;5098242;28;20239;-62
2023/06/09 08:26:26;;;;;;;10.40;9.70;;;;;;;;;;5098287;28;20278;-62
2023/06/09 08:28:53;;;;;;;10.85;10.05;;;;;;;;;;5098291;28;20226;-62
2023/06/09 08:31:21;;;;;;;10.70;9.82;;;;;;;;;;5098018;28;20270;-62
2023/06/09 08:33:48;;;;;;;10.18;9.38;;;;;;;;;;5098147;28;20517;-62
2023/06/09 08:36:18;;;;;;;10.90;10.10;;;;;;;;;;5097984;28;20212;-62
2023/06/09 08:38:45;;;;;;;10.50;9.80;;;;;;;;;;5097395;28;20561;-62
2023/06/09 08:41:12;;;;;;;10.70;9.90;;;;;;;;;;5097521;28;20231;-62
2023/06/09 08:43:40;;;;;;;10.98;10.07;;;;;;;;;;5097817;28;20273;-62
2023/06/09 08:46:08;;;;;;;11.15;10.25;;;;;;;;;;5097142;28;20235;-62
2023/06/09 08:48:37;;;;;;;10.65;9.85;;;;;;;;;;5097529;28;20196;-62
2023/06/09 08:51:04;;;;;;;10.80;9.95;;;;;;;;;;5097175;28;20204;-62
2023/06/09 08:53:34;;;;;;;10.98;10.10;;;;;;;;;;5097625;28;20493;-62
2023/06/09 08:56:01;;;;;;;10.60;9.90;;;;;;;;;;5097735;28;20334;-62
2023/06/09 08:58:29;;;;;;;10.40;9.68;;;;;;;;;;5097521;28;20215;-62
2023/06/09 09:00:56;;;;;;;10.50;9.77;;;;;;;;;;5096833;28;20211;-62
2023/06/09 09:03:24;;;;;;;9.88;9.18;;;;;;;;;;5097572;28;20200;-62
2023/06/09 09:05:51;;;;;;;10.48;9.65;;;;;;;;;;5096728;28;20210;-62
2023/06/09 09:08:21;;;;;;;10.57;9.88;;;;;;;;;;5097569;28;20203;-62
2023/06/09 09:10:49;;;;;;;10.48;9.77;;;;;;;;;;5097399;28;20226;-62
2023/06/09 09:13:19;;;;;;;10.35;9.55;;;;;;;;;;5097215;28;20649;-62
2023/06/09 09:15:49;;;;;;;10.75;10.05;;;;;;;;;;5096558;28;20204;-62
2023/06/09 09:18:17;;;;;;;10.68;9.77;;;;;;;;;;5095197;28;20203;-62
2023/06/09 09:20:45;;;;;;;10.95;10.15;;;;;;;;;;5096588;28;20230;-62
2023/06/09 09:23:12;;;;;;;10.63;9.82;;;;;;;;;;5096665;28;20307;-62
2023/06/09 09:25:40;;;;;;;10.98;10.18;;;;;;;;;;5095894;28;20212;-62
2023/06/09 09:28:09;;;;;;;11.13;10.27;;;;;;;;;;5096952;28;20257;-62
2023/06/09 09:30:44;;;;;;;11.77;10.88;;;;;;;;;;5096353;28;20223;-62
2023/06/09 09:33:12;;;;;;;11.50;10.60;;;;;;;;;;5095621;28;20226;-62
2023/06/09 09:35:40;;;;;;;11.25;10.45;;;;;;;;;;5096542;28;20199;-62
2023/06/09 09:38:11;;;;;;;11.20;10.30;;;;;;;;;;5096282;28;20231;-62
2023/06/09 09:40:42;;;;;;;10.85;10.10;;;;;;;;;;5096070;28;20587;-62
2023/06/09 09:43:11;;;;;;;10.95;10.05;;;;;;;;;;5095504;28;20200;-62
2023/06/09 09:45:40;;;;;;;10.55;9.80;;;;;;;;;;5095340;28;20758;-62
2023/06/09 09:48:11;;;;;;;10.05;9.35;;;;;;;;;;5096130;28;20196;-64
2023/06/09 09:50:39;;;;;;;9.90;9.20;;;;;;;;;;5096507;28;20200;-62
2023/06/09 09:53:06;;;;;;;9.95;9.20;;;;;;;;;;5095778;28;20224;-62
2023/06/09 09:55:35;;;;;;;10.30;9.50;;;;;;;;;;5096077;28;20210;-62
2023/06/09 09:58:05;;;;;;;9.95;9.20;;;;;;;;;;5095874;28;20199;-62
2023/06/09 10:00:35;;;;;;;10.27;9.57;;;;;;;;;;5095213;28;20247;-62
2023/06/09 10:03:06;;;;;;;11.10;10.30;;;;;;;;;;5094433;28;20625;-62
2023/06/09 10:05:33;;;;;;;10.23;9.48;;;;;;;;;;5095647;28;20203;-62
2023/06/09 10:08:02;;;;;;;10.05;9.30;;;;;;;;;;5095220;28;20611;-62
2023/06/09 10:10:29;;;;;;;10.55;9.75;;;;;;;;;;5095747;28;20204;-62
2023/06/09 10:12:59;;;;;;;10.70;10.00;;;;;;;;;;5095351;28;20618;-62
2023/06/09 10:15:26;;;;;;;10.82;10.02;;;;;;;;;;5095580;28;20609;-62
2023/06/09 10:17:55;;;;;;;10.82;10.05;;;;;;;;;;5095533;28;20210;-62
2023/06/09 10:20:23;;;;;;;10.38;9.68;;;;;;;;;;5095705;28;20196;-62
2023/06/09 10:22:50;;;;;;;10.32;9.63;;;;;;;;;;5095244;28;20219;-62
2023/06/09 10:25:18;;;;;;;10.30;9.60;;;;;;;;;;5095199;28;20207;-62
2023/06/09 10:27:46;;;;;;;10.23;9.45;;;;;;;;;;5094778;28;20229;-62
2023/06/09 10:30:16;;;;;;;10.75;9.98;;;;;;;;;;5094225;28;20552;-62
2023/06/09 10:32:47;;;;;;;10.95;10.13;;;;;;;;;;5094691;28;20253;-62
2023/06/09 10:35:17;;;;;;;11.10;10.30;;;;;;;;;;5094755;28;20210;-62
2023/06/09 10:37:47;;;;;;;10.82;10.13;;;;;;;;;;5093869;28;20204;-62
2023/06/09 10:40:20;;;;;;;10.48;9.70;;;;;;;;;;5094319;28;20284;-62
2023/06/09 10:42:51;;;;;;;11.20;10.20;;;;;;;;;;5093845;28;20198;-62
2023/06/09 10:45:19;;;;;;;10.20;9.50;;;;;;;;;;5093318;28;20223;-62
2023/06/09 10:47:48;;;;;;;10.05;9.27;;;;;;;;;;5093694;28;20200;-62
2023/06/09 10:50:24;;;;;;;9.80;9.10;;;;;;;;;;5093188;28;20211;-62
2023/06/09 10:52:56;;;;;;;8.63;8.02;;;;;;;;;;5094392;28;20235;-62
2023/06/09 10:55:27;;;;;;;9.10;8.48;;;;;;;;;;5094650;28;20280;-62
2023/06/09 10:57:54;;;;;;;8.57;8.07;;;;;;;;;;5093571;28;20203;-62
2023/06/09 11:00:23;;;;;;;8.50;7.90;;;;;;;;;;5094063;28;20265;-62
2023/06/09 11:02:50;;;;;;;8.80;8.13;;;;;;;;;;5094684;28;20207;-62
2023/06/09 11:05:19;;;;;;;8.02;7.43;;;;;;;;;;5094047;28;20486;-62
2023/06/09 11:07:48;;;;;;;7.97;7.47;;;;;;;;;;5095068;28;20204;-62
2023/06/09 11:10:26;;;;;;;8.40;7.80;;;;;;;;;;5094863;28;20200;-62
2023/06/09 11:12:55;;;;;;;7.95;7.35;;;;;;;;;;5094405;28;20575;-62
2023/06/09 11:15:23;;;;;;;7.85;7.25;;;;;;;;;;5094520;28;20622;-62
2023/06/09 11:17:50;;;;;;;7.72;7.18;;;;;;;;;;5094657;28;20743;-62
2023/06/09 11:20:19;;;;;;;7.95;7.35;;;;;;;;;;5094804;28;20204;-62
2023/06/09 11:23:01;;;;;;;7.30;6.70;;;;;;;;;;5094439;28;20203;-62
2023/06/09 11:25:38;;;;;;;7.22;6.72;;;;;;;;;;5094463;28;20199;-62
2023/06/09 11:28:20;;;;;;;7.40;6.90;;;;;;;;;;5093835;28;20582;-62
2023/06/09 11:31:03;;;;;;;6.88;6.22;;;;;;;;;;5093794;28;20587;-62
2023/06/09 11:33:42;;;;;;;7.85;6.43;;;;;;;;;;5093994;28;20314;-62
2023/06/09 11:36:12;;;;;;;6.88;6.38;;;;;;;;;;5093335;28;20211;-62
2023/06/09 11:38:41;;;;;;;7.63;6.93;;;;;;;;;;5093581;28;20261;-62
2023/06/09 11:41:10;;;;;;;6.72;6.25;;;;;;;;;;5093289;28;20281;-62
2023/06/09 11:43:37;;;;;;;7.53;6.93;;;;;;;;;;5093419;28;20552;-62
2023/06/09 11:46:05;;;;;;;6.95;6.45;;;;;;;;;;5093324;28;20247;-62
2023/06/09 11:48:32;;;;;;;7.35;6.85;;;;;;;;;;5093543;28;20207;-62
2023/06/09 11:50:59;;;;;;;7.82;7.13;;;;;;;;;;5097646;28;20212;-62
2023/06/09 11:53:27;;;;;;;7.45;6.85;;;;;;;;;;5096895;28;20231;-62
2023/06/09 11:56:03;;;;;;;7.20;6.70;;;;;;;;;;5097634;28;20204;-62
2023/06/09 11:58:31;;;;;;;7.57;7.07;;;;;;;;;;5096899;28;20210;-62
2023/06/09 12:00:59;;;;;;;7.90;7.30;;;;;;;;;;5097607;28;20231;-62
2023/06/09 12:03:27;;;;;;;7.82;7.13;;;;;;;;;;5097135;28;20200;-62
2023/06/09 12:05:55;;;;;;;7.95;7.40;;;;;;;;;;5095844;28;20208;-62
2023/06/09 12:08:22;;;;;;;7.43;6.72;;;;;;;;;;5096817;28;20229;-62
2023/06/09 12:10:49;;;;;;;7.85;7.22;;;;;;;;;;5096882;28;20196;-62
2023/06/09 12:13:18;;;;;;;7.80;7.20;;;;;;;;;;5096817;28;20227;-62
2023/06/09 12:15:52;;;;;;;8.20;7.50;;;;;;;;;;5097296;28;20206;-62
2023/06/09 12:18:20;;;;;;;8.13;7.32;;;;;;;;;;5096853;28;20207;-62
2023/06/09 12:20:50;;;;;;;7.63;6.93;;;;;;;;;;5096855;28;20641;-62
2023/06/09 12:23:18;;;;;;;8.50;7.82;;;;;;;;;;5097932;28;20199;-62
2023/06/09 12:25:47;;;;;;;8.52;7.82;;;;;;;;;;5097127;28;20614;-62
2023/06/09 12:28:16;;;;;;;8.13;7.45;;;;;;;;;;5096934;28;20212;-62
2023/06/09 12:30:47;;;;;;;8.60;7.90;;;;;;;;;;5096263;28;20215;-63
2023/06/09 12:33:15;;;;;;;8.13;7.53;;;;;;;;;;5096774;28;20528;-62
2023/06/09 12:35:43;;;;;;;8.10;7.50;;;;;;;;;;5097372;28;20298;-62
2023/06/09 12:38:12;;;;;;;8.07;7.38;;;;;;;;;;5097005;28;20204;-62
2023/06/09 12:40:49;;;;;;;8.45;7.75;;;;;;;;;;5096355;28;20200;-62
2023/06/09 12:43:17;;;;;;;8.13;7.50;;;;;;;;;;5096137;28;20199;-62
2023/06/09 12:45:46;;;;;;;8.55;7.85;;;;;;;;;;5096792;28;20243;-62
2023/06/09 12:48:14;;;;;;;8.68;7.93;;;;;;;;;;5096533;28;20595;-62
2023/06/09 12:50:41;;;;;;;8.52;7.82;;;;;;;;;;5096648;28;20200;-62
2023/06/09 12:53:10;;;;;;;8.80;8.20;;;;;;;;;;5096556;28;20591;-62
2023/06/09 12:55:38;;;;;;;8.38;7.78;;;;;;;;;;5097336;28;20200;-62
2023/06/09 12:58:05;;;;;;;8.35;7.70;;;;;;;;;;5096206;28;20199;-62
2023/06/09 13:00:33;;;;;;;8.40;7.70;;;;;;;;;;5095823;28;20204;-62
2023/06/09 13:03:02;;;;;;;8.82;8.18;;;;;;;;;;5096157;28;20206;-62
2023/06/09 13:05:30;;;;;;;8.60;7.97;;;;;;;;;;5095430;28;20211;-62
2023/06/09 13:07:58;;;;;;;8.32;7.72;;;;;;;;;;5095968;28;20215;-62
2023/06/09 13:10:26;;;;;;;8.23;7.53;;;;;;;;;;5095818;28;20206;-62
2023/06/09 13:12:53;;;;;;;8.32;7.63;;;;;;;;;;5095487;28;20222;-62
2023/06/09 13:15:21;;;;;;;8.23;7.63;;;;;;;;;;5096333;28;20524;-62
2023/06/09 13:17:48;;;;;;;8.07;7.57;;;;;;;;;;5096568;28;20599;-62
2023/06/09 13:20:17;;;;;;;7.80;7.22;;;;;;;;;;5095661;28;20211;-62
2023/06/09 13:22:45;;;;;;;7.63;7.13;;;;;;;;;;5096384;28;20204;-62
2023/06/09 13:25:12;;;;;;;7.68;7.18;;;;;;;;;;5096122;28;20207;-62
2023/06/09 13:27:40;;;;;;;8.07;7.47;;;;;;;;;;5095913;28;20210;-62
2023/06/09 13:30:08;;;;;;;7.95;7.35;;;;;;;;;;5096361;28;20219;-62
2023/06/09 13:32:35;;;;;;;7.78;7.18;;;;;;;;;;5096100;28;20204;-62
2023/06/09 13:35:03;;;;;;;7.97;7.38;;;;;;;;;;5095547;28;20227;-62
2023/06/09 13:37:32;;;;;;;7.45;6.85;;;;;;;;;;5095867;28;20207;-62
2023/06/09 13:39:59;;;;;;;7.80;7.20;;;;;;;;;;5096150;28;20564;-62
2023/06/09 13:42:26;;;;;;;8.00;7.38;;;;;;;;;;5097133;28;20210;-62
2023/06/09 13:44:54;;;;;;;7.80;7.10;;;;;;;;;;5095934;28;20199;-62
2023/06/09 13:47:22;;;;;;;7.38;6.88;;;;;;;;;;5096443;28;20218;-62
2023/06/09 13:49:53;;;;;;;7.25;6.65;;;;;;;;;;5096036;28;20307;-62
2023/06/09 13:52:20;;;;;;;7.47;6.88;;;;;;;;;;5095914;28;20474;-62
2023/06/09 13:54:49;;;;;;;7.80;7.20;;;;;;;;;;5096142;28;20224;-62
2023/06/09 13:57:17;;;;;;;7.55;7.05;;;;;;;;;;5095372;28;20212;-62
2023/06/09 13:59:44;;;;;;;7.80;7.20;;;;;;;;;;5095404;28;20204;-62
2023/06/09 14:02:12;;;;;;;8.02;7.43;;;;;;;;;;5095156;28;20204;-62
2023/06/09 14:04:39;;;;;;;7.20;6.70;;;;;;;;;;5095065;28;20204;-62
2023/06/09 14:07:07;;;;;;;7.97;7.38;;;;;;;;;;5094279;28;20289;-62
2023/06/09 14:09:34;;;;;;;8.00;7.40;;;;;;;;;;5095399;28;20234;-62
2023/06/09 14:12:03;;;;;;;8.27;7.68;;;;;;;;;;5094246;28;20204;-62
2023/06/09 14:14:31;;;;;;;8.30;7.60;;;;;;;;;;5094731;28;20239;-62
2023/06/09 14:16:58;;;;;;;7.80;7.20;;;;;;;;;;5095254;28;20714;-62
2023/06/09 14:19:26;;;;;;;8.10;7.50;;;;;;;;;;5094932;28;20203;-62
2023/06/09 14:21:53;;;;;;;8.50;7.70;;;;;;;;;;5094614;28;20599;-63
2023/06/09 14:24:21;;;;;;;8.02;7.40;;;;;;;;;;5094667;28;20306;-62
2023/06/09 14:26:49;;;;;;;8.13;7.53;;;;;;;;;;5094539;28;20199;-62
2023/06/09 14:29:17;;;;;;;8.18;7.57;;;;;;;;;;5093740;28;20236;-62
2023/06/09 14:31:45;;;;;;;8.18;7.47;;;;;;;;;;5095812;28;20211;-62
2023/06/09 14:34:12;;;;;;;8.10;7.50;;;;;;;;;;5094893;28;20231;-62
2023/06/09 14:36:39;;;;;;;8.27;7.57;;;;;;;;;;5095063;28;20226;-62
2023/06/09 14:39:07;;;;;;;8.23;7.63;;;;;;;;;;5094681;28;20203;-62
2023/06/09 14:41:34;;;;;;;8.02;7.53;;;;;;;;;;5094910;28;20262;-62
2023/06/09 14:44:02;;;;;;;8.30;7.68;;;;;;;;;;5094850;28;20273;-62
2023/06/09 14:46:33;;;;;;;8.13;7.53;;;;;;;;;;5094967;28;20224;-62